Share

Hang Nadim, Indonesia

3:23 PM WIT on April 24, 2014 (GMT +0700)
Ocean Park (ICHAOYAN2) Elev 66 ft | 1.31 °N, 103.92 °E | Change Station

Current weather conditions updated 5 minutes ago

Mostly Cloudy
Mostly Cloudy
91.0 °F
Feels Like 114 °F
N
0.0
Wind Variable Wind from West
Gusts 0.0 mph
Sunrise 5:57 AM
Sunset 6:06 PM
Moon Waning Crescent

Today is forecast to be nearly the same temperature as yesterday. Thunderstorms.

Pressure 29.74 in
Visibility 6.2 miles
Clouds Few 1800 ft
Few 2000 ft
Mostly Cloudy 30000 ft
Heat Index 114 °F
Dew Point 83 °F
Humidity 76%
Rainfall 0.61 in
Snow Depth Not available.
UV 4 out of 16
Pollen Not available.
Air Quality Not available.
Flu Activity Not available.
METAR WSSS 240800Z 19007KT 150V240 9999 FEW018CB FEW020TCU BKN300 32/25 Q1007 NOSIG

More Conditions Fewer Conditions

Pressure 29.74 in
Visibility 6.2 miles
Clouds Few 1800 ft
Few 2000 ft
Mostly Cloudy 30000 ft
Heat Index 114 °F
Dew Point 83 °F
Humidity 76%
Rainfall 0.61 in
Snow Depth Not available.
UV 4 out of 16
Pollen Not available.
Air Quality Not available.
Flu Activity Not available.
METAR WSSS 240800Z 19007KT 150V240 9999 FEW018CB FEW020TCU BKN300 32/25 Q1007 NOSIG

More Conditions Fewer Conditions

10-Day Weather Forecast

Almanac

Astronomy

Apr. 24, 2014 Rise Set
Actual Time 5:57 AM WIT 6:06 PM WIT
Civil Twilight 5:36 AM WIT 6:27 PM WIT
Nautical Twilight 5:11 AM WIT 6:52 PM WIT
Astronomical Twilight 4:46 AM WIT 7:16 PM WIT
Moon 1:31 AM WIT 1:55 PM WIT
Length of Visible Light 12h 51m
Length of Day
12h 08m
Tomorrow will be 0m 3s longer.
Waning Crescent, 28% of the Moon is Illuminated
Today
Waning Crescent
Apr 29
New
May 6
First Quarter
May 14
Full
May 21
Last Quarter

Yesterday's Extremes

Country Highs Country Lows

Community

  • Stacked
    Stacked
  • clouds approaching Red Sox Nation
    clouds approaching Red Sox Nation
  • Balance
    Balance
  • Nestled In
    Nestled In
  • Stunning Sunrise
    Stunning Sunrise

WunderPhotos

Upload Photos

1,704,575 photos uploaded!

WunderBlogs® & News

Nearby

Snow Depth

Not available.

Coastal Water Temperatures

Place Temperature
No Stations Reporting

Earthquake Activity

City Distance Mag. Time & Date
No recent earthquake activity has been reported nearby.
Minimum magnitude displayed is 2.5.

Nearby Weather Stations

Station Location Temp. Heat Index Dew Point Humidity Wind Precip. Elev Updated Type
Ocean Park, Singapore 91.0 °F 114 °F 83 °F 76% West  at  0.0 mph 0.00 in / hr 66 ft 4:17 PM SGT Normal
Alexandra, Singapore 88.4 °F 106 °F 80 °F 77% ENE  at  3.0 mph 0.00 in / hr 144 ft 4:15 PM SGT Normal

Show More Stations Show Fewer Stations

What do you think?

We're not finished. Please let us know what you like, what you don't like, and what you are still missing.